Terminal Aerodrome Forecast
Issued by NWS Corpus Christi, TX

Home | Current Version | Previous Version | Text Only | Print | Product List | Glossary On
Versions: 1 2 3 4 5 6 7 8 9 10 11 12 13 14 15
417
FTUS44 KCRP 291123
TAFVCT
TAF
KVCT 291123Z 2912/3012 16018G25KT 6SM BR OVC015
     FM291500 15020G28KT P6SM BKN025
     FM292000 15020G30KT P6SM BKN035
     FM300100 14014G25KT 6SM BR BKN015
      TEMPO 3005/3009 33018G25KT TSRA BKN025CB
     FM300900 35020G28KT P6SM OVC030=

USA.gov is the U.S. government's official web portal to all federal, state and local government web resources and services.